Terminal Aerodrome Forecast
Issued by NWS North Platte, NE

Home | Current Version | Previous Version | Text Only | Print | Product List | Glossary On
Versions: 1 2 3 4 5 6 7 8 9 10 11 12 13 14 15 16
859
FTUS43 KLBF 252322
TAFLBF
TAF
KLBF 252322Z 2600/2624 05011KT P6SM VCSH BKN080 OVC110
     FM260100 36007KT P6SM VCSH BKN080 OVC100
     FM260500 35008KT P6SM BKN100
     FM261200 35008KT P6SM FEW250
     FM261800 02007KT P6SM SCT250
     FM262000 09006KT P6SM SCT250=

USA.gov is the U.S. government's official web portal to all federal, state and local government web resources and services.